Algowood — VCTD — position and weather

sailwx.info

Track history (hours):
 
Tides and Currents Weather Stations Pressure Air Temp Water Temp Dewpoint Dewpoint Depression Visibility Wind Speed Wind Dir Waves Ship Positions

Algowood

Last reported at 2016-Jul-01 11:34 UTC. Time now 2016-Jul-01 11:52 UTC.
Position N 45°24' W 073°47'.

Length 223 m; draft 8.1 m.

Type: Cargo ship. MMSI: 316001802.

Date/timePositionNaut miles runAvg speedWind from/ knotsBaromVisibWave heightAir tempDewpointWater temp
2016-Jul-01 11:34N 45°24' W 073°47'7 6.5
2016-Jul-01 10:34N 45°24' W 073°38'3 2.6
2016-Jul-01 09:34N 45°24' W 073°34'3 3.2
2016-Jul-01 08:33N 45°26' W 073°30'4 2.8
2016-Jul-01 07:08N 45°30' W 073°31'2 3.8
2016-Jul-01 06:33N 45°32' W 073°32'8 7.6
2016-Jul-01 05:34N 45°40' W 073°28'8 8.3
2016-Jul-01 04:33N 45°47' W 073°22'9 8.6
2016-Jul-01 03:33N 45°53' W 073°14'9 8.6
2016-Jul-01 02:34N 46°02' W 073°10'9 8.6
2016-Jul-01 01:33N 46°06' W 072°59'9 8.6
2016-Jul-01 00:33N 46°12' W 072°51'10 8.3
2016-Jun-30 23:24N 46°16' W 072°38'14 0.4
2016-Jun-29 14:22N 46°09' W 072°57'1011.9
2016-Jun-29 13:33N 46°03' W 073°07'1212.3
2016-Jun-29 12:34N 45°52' W 073°15'1313.1
2016-Jun-29 11:34N 45°42' W 073°27'13 6.5
2016-Jun-29 09:32N 45°29' W 073°31'5 4.6
2016-Jun-29 08:33N 45°25' W 073°31'3 2.6
2016-Jun-29 07:33N 45°24' W 073°35'4 4.4
2016-Jun-29 06:33N 45°25' W 073°41'9 9.0
2016-Jun-29 05:33N 45°21' W 073°52'3 3.3
2016-Jun-29 04:33N 45°18' W 073°56'1 1.2
2016-Jun-29 03:33N 45°17' W 073°56'8 7.7
2016-Jun-29 02:28N 45°14' W 074°07'241 6.5
2016-Jun-27 13:21N 43°20' W 079°04'810.3
2016-Jun-27 12:33N 43°15' W 079°13'2 2.0
2016-Jun-27 11:33N 43°13' W 079°13'1 1.5
2016-Jun-27 10:33N 43°12' W 079°12'2 2.1
2016-Jun-27 09:33N 43°09' W 079°12'1 0.8
2016-Jun-27 08:34N 43°09' W 079°12'1 0.7
2016-Jun-27 07:33N 43°08' W 079°12'0 0.2
2016-Jun-27 06:33N 43°08' W 079°12'1 0.5
2016-Jun-27 05:33N 43°07' W 079°12'  
2016-Jun-21 12:31N 46°18' W 083°46'  
Track history (hours):
 
Tides and Currents Weather Stations Pressure Air Temp Water Temp Dewpoint Dewpoint Depression Visibility Wind Speed Wind Dir Waves Ship Positions

Algowood

Last reported at 2016-Jul-01 11:34 UTC. Time now 2016-Jul-01 11:52 UTC.
Position N 45°24' W 073°47'.

Length 223 m; draft 8.1 m.

Type: Cargo ship. MMSI: 316001802.

Date/timePositionNaut miles runAvg speedWind from/ knotsBaromVisibWave heightAir tempDewpointWater temp
2016-Jul-01 11:34N 45°24' W 073°47'7 6.5
2016-Jul-01 10:34N 45°24' W 073°38'3 2.6
2016-Jul-01 09:34N 45°24' W 073°34'3 3.2
2016-Jul-01 08:33N 45°26' W 073°30'4 2.8
2016-Jul-01 07:08N 45°30' W 073°31'2 3.8
2016-Jul-01 06:33N 45°32' W 073°32'8 7.6
2016-Jul-01 05:34N 45°40' W 073°28'8 8.3
2016-Jul-01 04:33N 45°47' W 073°22'9 8.6
2016-Jul-01 03:33N 45°53' W 073°14'9 8.6
2016-Jul-01 02:34N 46°02' W 073°10'9 8.6
2016-Jul-01 01:33N 46°06' W 072°59'9 8.6
2016-Jul-01 00:33N 46°12' W 072°51'10 8.3
2016-Jun-30 23:24N 46°16' W 072°38'14 0.4
2016-Jun-29 14:22N 46°09' W 072°57'1011.9
2016-Jun-29 13:33N 46°03' W 073°07'1212.3
2016-Jun-29 12:34N 45°52' W 073°15'1313.1
2016-Jun-29 11:34N 45°42' W 073°27'13 6.5
2016-Jun-29 09:32N 45°29' W 073°31'5 4.6
2016-Jun-29 08:33N 45°25' W 073°31'3 2.6
2016-Jun-29 07:33N 45°24' W 073°35'4 4.4
2016-Jun-29 06:33N 45°25' W 073°41'9 9.0
2016-Jun-29 05:33N 45°21' W 073°52'3 3.3
2016-Jun-29 04:33N 45°18' W 073°56'1 1.2
2016-Jun-29 03:33N 45°17' W 073°56'8 7.7
2016-Jun-29 02:28N 45°14' W 074°07'241 6.5
2016-Jun-27 13:21N 43°20' W 079°04'810.3
2016-Jun-27 12:33N 43°15' W 079°13'2 2.0
2016-Jun-27 11:33N 43°13' W 079°13'1 1.5
2016-Jun-27 10:33N 43°12' W 079°12'2 2.1
2016-Jun-27 09:33N 43°09' W 079°12'1 0.8
2016-Jun-27 08:34N 43°09' W 079°12'1 0.7
2016-Jun-27 07:33N 43°08' W 079°12'0 0.2
2016-Jun-27 06:33N 43°08' W 079°12'1 0.5
2016-Jun-27 05:33N 43°07' W 079°12'  
2016-Jun-21 12:31N 46°18' W 083°46'  

Dump ship's entire track history